createdAt,value
2022-08-17T00:00:11.989Z,16.40
2022-08-17T00:03:00.836Z,16.98
2022-08-17T00:05:32.039Z,20.10
2022-08-17T00:08:01.725Z,17.88
2022-08-17T00:10:29.707Z,17.27
2022-08-17T00:13:00.577Z,17.45
2022-08-17T00:15:28.632Z,17.95
2022-08-17T00:17:56.759Z,18.20
2022-08-17T00:20:30.557Z,17.35
2022-08-17T00:23:05.295Z,18.40
2022-08-17T00:25:33.409Z,16.30
2022-08-17T00:28:02.256Z,17.33
2022-08-17T00:30:30.812Z,19.42
2022-08-17T00:33:19.863Z,16.77
2022-08-17T00:35:48.642Z,17.33
2022-08-17T00:38:21.895Z,18.40
2022-08-17T00:40:51.816Z,20.40
2022-08-17T00:43:27.572Z,19.08
2022-08-17T00:45:56.308Z,22.50
2022-08-17T00:48:29.203Z,24.02
2022-08-17T00:51:00.152Z,19.63
2022-08-17T00:53:31.034Z,17.42
2022-08-17T00:55:59.412Z,19.45
2022-08-17T00:58:30.430Z,17.98
2022-08-17T01:01:04.577Z,20.27
2022-08-17T01:03:32.779Z,16.83
2022-08-17T01:06:02.020Z,19.05
2022-08-17T01:08:32.553Z,18.52
2022-08-17T01:11:02.807Z,16.00
2022-08-17T01:13:38.167Z,18.60
2022-08-17T01:16:11.012Z,17.70
2022-08-17T01:18:39.248Z,20.17
2022-08-17T01:21:10.977Z,14.80
2022-08-17T01:23:42.679Z,16.98
2022-08-17T01:26:10.445Z,13.27
2022-08-17T01:28:55.004Z,19.10
2022-08-17T01:31:24.716Z,20.70
2022-08-17T01:33:52.727Z,19.33
2022-08-17T01:36:20.711Z,17.65
2022-08-17T01:38:50.456Z,21.77
2022-08-17T01:41:18.899Z,18.42
2022-08-17T01:43:49.156Z,15.98
2022-08-17T01:46:21.035Z,18.00
2022-08-17T01:48:48.984Z,17.77
2022-08-17T01:51:17.346Z,20.30
2022-08-17T01:53:47.348Z,17.90
2022-08-17T01:56:18.616Z,21.65
2022-08-17T01:58:47.270Z,17.00
2022-08-17T02:01:17.929Z,18.75
2022-08-17T02:03:59.351Z,18.92
2022-08-17T02:06:29.857Z,18.65
2022-08-17T02:09:03.271Z,13.88
2022-08-17T02:11:34.337Z,14.63
2022-08-17T02:14:08.849Z,9.77
2022-08-17T02:16:38.973Z,9.65
2022-08-17T02:19:08.703Z,11.60
2022-08-17T02:21:37.696Z,13.32
2022-08-17T02:24:06.338Z,12.25
2022-08-17T02:26:35.850Z,11.55
2022-08-17T02:29:04.914Z,9.93
2022-08-17T02:31:32.985Z,10.80
2022-08-17T02:34:04.505Z,9.27
2022-08-17T02:36:33.632Z,12.82
2022-08-17T02:39:02.185Z,11.27
2022-08-17T02:41:30.055Z,11.95
2022-08-17T02:44:00.431Z,12.95
2022-08-17T02:46:28.894Z,11.02
2022-08-17T02:48:57.100Z,12.32
2022-08-17T02:51:24.977Z,11.35
2022-08-17T02:53:53.252Z,9.55
2022-08-17T02:56:41.280Z,12.35
2022-08-17T02:59:10.733Z,11.52
2022-08-17T03:01:38.755Z,14.50
2022-08-17T03:04:06.817Z,12.77
2022-08-17T03:06:34.773Z,14.88
2022-08-17T03:09:02.912Z,13.48
2022-08-17T03:11:30.912Z,12.65
2022-08-17T03:14:00.519Z,13.85
2022-08-17T03:16:30.169Z,13.68
2022-08-17T03:18:58.598Z,14.02
2022-08-17T03:21:26.518Z,12.10
2022-08-17T03:23:54.810Z,13.55
2022-08-17T03:26:25.349Z,11.80
2022-08-17T03:28:58.668Z,13.98
2022-08-17T03:31:26.616Z,14.63
2022-08-17T03:33:58.470Z,12.68
2022-08-17T03:36:27.254Z,13.88
2022-08-17T03:38:55.413Z,16.80
2022-08-17T03:41:23.732Z,12.93
2022-08-17T03:43:51.995Z,16.20
2022-08-17T03:46:37.369Z,13.85
2022-08-17T03:49:25.318Z,13.77
2022-08-17T03:52:10.831Z,11.88
2022-08-17T03:54:56.090Z,12.48
2022-08-17T03:57:24.725Z,12.45
2022-08-17T03:59:53.052Z,17.73
2022-08-17T04:02:22.729Z,17.90
2022-08-17T04:04:52.551Z,12.23
2022-08-17T04:07:21.478Z,16.00
2022-08-17T04:09:49.895Z,16.73
2022-08-17T04:12:19.705Z,16.27
2022-08-17T04:14:53.637Z,16.25
2022-08-17T04:17:23.180Z,19.40
2022-08-17T04:19:53.059Z,14.38
2022-08-17T04:22:31.850Z,19.80
2022-08-17T04:25:07.582Z,16.60
2022-08-17T04:27:35.375Z,15.75
2022-08-17T04:30:03.975Z,16.48
2022-08-17T04:33:04.252Z,16.67
2022-08-17T04:35:23.416Z,15.02
2022-08-17T04:37:52.089Z,17.17
2022-08-17T04:40:39.159Z,16.35
2022-08-17T04:43:10.200Z,16.23
2022-08-17T04:45:40.448Z,15.52
2022-08-17T04:48:23.225Z,14.30
2022-08-17T04:50:59.959Z,18.02
2022-08-17T04:53:28.224Z,16.10
2022-08-17T04:55:57.880Z,15.60
2022-08-17T04:58:25.814Z,16.88
2022-08-17T05:00:54.940Z,13.77
2022-08-17T05:03:23.372Z,15.93
2022-08-17T05:05:53.789Z,17.48
2022-08-17T05:08:24.349Z,18.27
2022-08-17T05:10:54.056Z,15.43
2022-08-17T05:13:23.392Z,19.98
2022-08-17T05:15:54.945Z,18.40
2022-08-17T05:18:24.584Z,18.67
2022-08-17T05:20:53.041Z,19.83
2022-08-17T05:23:22.481Z,17.65
2022-08-17T05:25:52.569Z,20.92
2022-08-17T05:28:24.215Z,16.70
2022-08-17T05:30:55.765Z,19.50
2022-08-17T05:33:25.765Z,21.90
2022-08-17T05:35:55.337Z,18.40
2022-08-17T05:38:25.105Z,18.77
2022-08-17T05:40:55.375Z,21.35
2022-08-17T05:43:24.625Z,18.60
2022-08-17T05:45:57.539Z,20.48
2022-08-17T05:48:39.571Z,21.75
2022-08-17T05:51:25.358Z,18.17
2022-08-17T05:53:58.242Z,20.73
2022-08-17T05:56:32.806Z,22.35
2022-08-17T05:59:06.350Z,21.23
2022-08-17T06:01:37.017Z,18.83
2022-08-17T06:04:13.043Z,18.95
2022-08-17T06:06:42.721Z,17.90
2022-08-17T06:09:19.863Z,22.33
2022-08-17T06:11:54.322Z,18.92
2022-08-17T06:14:33.124Z,18.10
2022-08-17T06:17:03.548Z,16.77
2022-08-17T06:19:35.233Z,22.90
2022-08-17T06:22:05.819Z,17.42
2022-08-17T06:24:36.254Z,20.33
2022-08-17T06:27:11.511Z,16.35
2022-08-17T06:29:44.058Z,22.77
2022-08-17T06:32:12.978Z,21.30
2022-08-17T06:34:41.229Z,17.20
2022-08-17T06:37:18.830Z,17.13
2022-08-17T06:39:50.892Z,19.15
2022-08-17T06:43:02.629Z,17.25
2022-08-17T06:45:16.564Z,15.77
2022-08-17T06:47:48.909Z,20.27
2022-08-17T06:50:19.653Z,20.40
2022-08-17T06:52:51.362Z,21.58
2022-08-17T06:55:21.904Z,17.40
2022-08-17T06:57:53.651Z,15.63
2022-08-17T07:00:24.016Z,19.73
2022-08-17T07:02:56.082Z,18.58
2022-08-17T07:05:25.691Z,21.52
2022-08-17T07:08:03.834Z,18.73
2022-08-17T07:10:36.423Z,22.25
2022-08-17T07:13:14.019Z,15.88
2022-08-17T07:15:43.874Z,20.45
2022-08-17T07:18:12.569Z,21.42
2022-08-17T07:20:43.877Z,17.73
2022-08-17T07:23:20.013Z,18.75
2022-08-17T07:25:48.209Z,19.98
2022-08-17T07:28:22.966Z,19.85
2022-08-17T07:30:55.383Z,17.40
2022-08-17T07:33:24.637Z,19.52
2022-08-17T07:35:52.900Z,21.60
2022-08-17T07:38:25.583Z,19.70
2022-08-17T07:41:03.517Z,17.75
2022-08-17T07:43:33.446Z,21.88
2022-08-17T07:46:22.997Z,17.90
2022-08-17T07:48:52.589Z,18.20
2022-08-17T07:51:29.725Z,17.73
2022-08-17T07:54:13.539Z,18.30
2022-08-17T07:56:45.583Z,20.83
2022-08-17T07:59:17.476Z,22.88
2022-08-17T08:01:47.259Z,22.45
2022-08-17T08:04:49.952Z,23.05
2022-08-17T08:07:14.199Z,22.38
2022-08-17T08:09:45.139Z,27.00
2022-08-17T08:12:28.957Z,19.45
2022-08-17T08:15:05.792Z,28.73
2022-08-17T08:17:36.935Z,28.92
2022-08-17T08:20:47.762Z,24.80
2022-08-17T08:23:01.494Z,23.90
2022-08-17T08:25:35.915Z,28.90
2022-08-17T08:28:14.938Z,33.05
2022-08-17T08:30:50.329Z,30.10
2022-08-17T08:33:39.314Z,29.50
2022-08-17T08:36:13.422Z,30.10
2022-08-17T08:39:04.606Z,40.72
2022-08-17T08:41:38.736Z,31.98
2022-08-17T08:44:17.195Z,32.85
2022-08-17T08:46:50.437Z,36.67
2022-08-17T08:50:02.170Z,36.85
2022-08-17T08:52:34.252Z,41.92
2022-08-17T08:55:04.842Z,39.95
2022-08-17T08:57:35.106Z,36.30
2022-08-17T09:00:13.133Z,41.35
2022-08-17T09:02:49.609Z,40.53
2022-08-17T09:05:24.434Z,40.03
2022-08-17T09:07:57.436Z,39.13
2022-08-17T09:10:27.182Z,36.95
2022-08-17T09:12:58.839Z,41.58
2022-08-17T09:15:28.709Z,40.10
2022-08-17T09:18:59.178Z,38.92
2022-08-17T09:20:53.314Z,41.13
2022-08-17T09:23:26.818Z,32.58
2022-08-17T09:25:58.372Z,33.35
2022-08-17T09:28:29.949Z,34.53
2022-08-17T09:31:02.549Z,36.35
2022-08-17T09:33:35.225Z,34.10
2022-08-17T09:36:05.166Z,34.42
2022-08-17T09:38:36.678Z,33.65
2022-08-17T09:41:10.583Z,35.75
2022-08-17T09:43:41.777Z,26.48
2022-08-17T09:46:13.281Z,18.15
2022-08-17T09:48:45.342Z,25.13
2022-08-17T09:51:16.714Z,16.45
2022-08-17T09:53:47.345Z,22.25
2022-08-17T09:56:24.184Z,22.20
2022-08-17T09:59:03.988Z,22.80
2022-08-17T10:01:36.854Z,21.80
2022-08-17T10:04:20.516Z,18.15
2022-08-17T10:06:54.680Z,23.35
2022-08-17T10:09:25.159Z,21.50
2022-08-17T10:12:12.777Z,19.92
2022-08-17T10:14:55.218Z,22.08
2022-08-17T10:17:26.127Z,25.75
2022-08-17T10:19:59.479Z,20.42
2022-08-17T10:22:54.941Z,22.55
2022-08-17T10:25:56.478Z,22.50
2022-08-17T10:28:30.123Z,21.10
2022-08-17T10:31:34.346Z,22.05
2022-08-17T10:33:57.605Z,23.85
2022-08-17T10:36:28.078Z,19.90
2022-08-17T10:39:04.902Z,23.58
2022-08-17T10:41:40.403Z,24.27
2022-08-17T10:44:39.398Z,22.10
2022-08-17T10:47:07.532Z,21.48
2022-08-17T10:49:36.496Z,19.58
2022-08-17T10:52:27.844Z,19.48
2022-08-17T10:55:16.473Z,20.27
2022-08-17T10:57:47.431Z,25.90
2022-08-17T11:00:36.540Z,26.38
2022-08-17T11:03:16.055Z,21.73
2022-08-17T11:05:54.234Z,20.88
2022-08-17T11:08:36.641Z,22.38
2022-08-17T11:11:14.720Z,22.45
2022-08-17T11:13:48.905Z,21.40
2022-08-17T11:16:39.232Z,19.65
2022-08-17T11:19:21.294Z,21.92
2022-08-17T11:22:03.140Z,21.90
2022-08-17T11:24:35.257Z,20.80
2022-08-17T11:27:12.235Z,21.25
2022-08-17T11:29:59.443Z,22.08
2022-08-17T11:32:47.073Z,19.38
2022-08-17T11:35:29.888Z,21.33
2022-08-17T11:38:15.961Z,23.63
2022-08-17T11:40:55.538Z,21.38
2022-08-17T11:43:42.897Z,20.55
2022-08-17T11:46:22.831Z,19.40
2022-08-17T11:49:18.653Z,20.60
2022-08-17T11:51:58.431Z,20.08
2022-08-17T11:54:40.552Z,21.55
2022-08-17T11:57:35.628Z,19.23
2022-08-17T12:00:07.366Z,17.73
2022-08-17T12:02:39.125Z,23.48
2022-08-17T12:05:27.675Z,19.17
2022-08-17T12:08:02.847Z,16.63
2022-08-17T12:10:32.504Z,20.10
2022-08-17T12:13:01.292Z,16.05
2022-08-17T12:15:31.732Z,18.38
2022-08-17T12:18:02.448Z,14.88
2022-08-17T12:20:34.339Z,20.30
2022-08-17T12:23:07.357Z,19.70
2022-08-17T12:25:37.410Z,16.55
2022-08-17T12:28:07.729Z,20.83
2022-08-17T12:30:36.957Z,17.30
2022-08-17T12:33:25.611Z,23.25
2022-08-17T12:36:00.348Z,23.42
2022-08-17T12:38:32.367Z,20.45
2022-08-17T12:41:21.999Z,18.40
2022-08-17T12:43:56.630Z,19.10
2022-08-17T12:46:24.608Z,19.02
2022-08-17T12:48:59.500Z,16.45
2022-08-17T12:51:29.398Z,13.52
2022-08-17T12:53:57.609Z,17.45
2022-08-17T12:56:25.582Z,19.70
2022-08-17T12:58:55.583Z,16.83
2022-08-17T13:01:25.668Z,17.30
2022-08-17T13:03:57.249Z,18.65
2022-08-17T13:06:29.227Z,14.90
2022-08-17T13:08:57.390Z,14.35
2022-08-17T13:11:26.107Z,16.45
2022-08-17T13:13:56.041Z,15.60
2022-08-17T13:16:27.205Z,16.83
2022-08-17T13:19:07.344Z,15.70
2022-08-17T13:21:35.945Z,18.55
2022-08-17T13:24:05.732Z,19.42
2022-08-17T13:26:35.676Z,19.80
2022-08-17T13:29:06.330Z,20.98
2022-08-17T13:31:43.444Z,19.80
2022-08-17T13:34:34.524Z,20.92
2022-08-17T13:37:26.125Z,20.25
2022-08-17T13:39:56.182Z,19.25
2022-08-17T13:42:31.528Z,22.05
2022-08-17T13:45:00.573Z,18.13
2022-08-17T13:47:28.749Z,19.70
2022-08-17T13:50:00.791Z,18.15
2022-08-17T13:52:34.698Z,19.35
2022-08-17T13:55:04.478Z,21.30
2022-08-17T13:57:32.662Z,19.75
2022-08-17T14:00:08.881Z,20.50
2022-08-17T14:02:36.849Z,22.10
2022-08-17T14:05:06.873Z,21.52
2022-08-17T14:07:36.579Z,21.70
2022-08-17T14:10:08.432Z,19.75
2022-08-17T14:12:36.817Z,20.63
2022-08-17T14:15:05.447Z,20.42
2022-08-17T14:17:38.091Z,18.10
2022-08-17T14:20:11.852Z,20.90
2022-08-17T14:22:41.672Z,19.67
2022-08-17T14:25:10.492Z,21.77
2022-08-17T14:27:52.132Z,16.45
2022-08-17T14:30:21.959Z,22.25
2022-08-17T14:32:52.238Z,25.50
2022-08-17T14:35:23.256Z,19.08
2022-08-17T14:37:51.782Z,20.98
2022-08-17T14:40:22.677Z,22.35
2022-08-17T14:42:51.322Z,24.33
2022-08-17T14:45:30.336Z,21.38
2022-08-17T14:48:01.872Z,21.67
2022-08-17T14:50:31.995Z,20.33
2022-08-17T14:53:04.833Z,21.15
2022-08-17T14:55:32.988Z,18.25
2022-08-17T14:58:00.929Z,20.88
2022-08-17T15:00:29.921Z,18.80
2022-08-17T15:03:01.743Z,20.00
2022-08-17T15:05:34.263Z,16.65
2022-08-17T15:08:03.069Z,16.40
2022-08-17T15:10:31.583Z,20.80
2022-08-17T15:13:00.500Z,18.90
2022-08-17T15:15:29.620Z,20.85
2022-08-17T15:17:58.316Z,22.45
2022-08-17T15:20:29.102Z,21.35
2022-08-17T15:22:59.618Z,20.70
2022-08-17T15:25:31.768Z,17.17
2022-08-17T15:28:00.227Z,24.52
2022-08-17T15:30:28.809Z,20.70
2022-08-17T15:32:58.060Z,20.77
2022-08-17T15:35:28.351Z,21.83
2022-08-17T15:38:06.098Z,22.08
2022-08-17T15:40:37.501Z,20.02
2022-08-17T15:43:06.115Z,19.85
2022-08-17T15:45:34.542Z,20.13
2022-08-17T15:48:03.941Z,19.70
2022-08-17T15:50:32.838Z,18.30
2022-08-17T15:53:03.709Z,16.98
2022-08-17T15:55:33.037Z,17.92
2022-08-17T15:58:01.513Z,13.90
2022-08-17T16:00:30.054Z,13.35
2022-08-17T16:03:14.447Z,14.27
2022-08-17T16:05:49.368Z,13.75
2022-08-17T16:08:21.448Z,12.70
2022-08-17T16:10:49.788Z,13.82
2022-08-17T16:13:18.404Z,10.32
2022-08-17T16:15:51.033Z,7.70
2022-08-17T16:18:25.446Z,8.25
2022-08-17T16:20:53.742Z,8.95
2022-08-17T16:23:24.151Z,7.60
2022-08-17T16:25:54.311Z,5.72
2022-08-17T16:28:29.868Z,1.38
2022-08-17T16:31:04.602Z,1.15
2022-08-17T16:33:32.653Z,0.70
2022-08-17T16:36:01.079Z,2.35
2022-08-17T16:38:30.554Z,3.65
2022-08-17T16:40:58.687Z,3.33
2022-08-17T16:43:27.507Z,3.35
2022-08-17T16:45:56.299Z,4.22
2022-08-17T16:48:24.658Z,3.88
2022-08-17T16:51:03.158Z,5.28
2022-08-17T16:53:34.209Z,3.05
2022-08-17T16:56:03.636Z,3.53
2022-08-17T16:58:31.606Z,5.40
2022-08-17T17:00:59.991Z,3.72
2022-08-17T17:03:29.834Z,3.75
2022-08-17T17:06:03.629Z,3.47
2022-08-17T17:08:42.207Z,3.88
2022-08-17T17:11:14.196Z,4.18
2022-08-17T17:13:45.013Z,4.80
2022-08-17T17:16:18.682Z,5.25
2022-08-17T17:18:53.061Z,4.25
2022-08-17T17:21:23.281Z,5.40
2022-08-17T17:23:56.521Z,5.13
2022-08-17T17:26:43.297Z,3.75
2022-08-17T17:29:19.537Z,4.22
2022-08-17T17:31:52.682Z,4.03
2022-08-17T17:34:20.980Z,4.25
2022-08-17T17:36:51.580Z,4.40
2022-08-17T17:39:22.234Z,5.07
2022-08-17T17:41:52.737Z,4.13
2022-08-17T17:44:23.037Z,3.67
2022-08-17T17:46:55.007Z,4.03
2022-08-17T17:49:24.253Z,4.45
2022-08-17T17:52:07.690Z,6.70
2022-08-17T17:54:49.268Z,4.30
2022-08-17T17:57:22.301Z,3.83
2022-08-17T17:59:58.100Z,4.40
2022-08-17T18:02:51.210Z,4.75
2022-08-17T18:05:29.421Z,3.75
2022-08-17T18:08:05.899Z,4.72
2022-08-17T18:10:48.974Z,5.82
2022-08-17T18:13:25.900Z,5.35
2022-08-17T18:15:55.434Z,4.50
2022-08-17T18:18:38.076Z,4.15
2022-08-17T18:21:09.064Z,3.20
2022-08-17T18:23:37.270Z,4.72
2022-08-17T18:26:06.925Z,3.45
2022-08-17T18:28:38.744Z,2.88
2022-08-17T18:31:08.416Z,3.80
2022-08-17T18:33:38.163Z,3.42
2022-08-17T18:36:06.518Z,3.95
2022-08-17T18:38:35.864Z,3.40
2022-08-17T18:41:26.235Z,3.67
2022-08-17T18:44:01.922Z,4.78
2022-08-17T18:46:33.441Z,4.15
2022-08-17T18:49:02.664Z,2.75
2022-08-17T18:51:42.269Z,3.40
2022-08-17T18:54:19.639Z,3.17
2022-08-17T18:56:53.456Z,4.40
2022-08-17T18:59:29.143Z,2.10
2022-08-17T19:02:10.013Z,12.48
2022-08-17T19:04:41.717Z,14.18
2022-08-17T19:07:25.011Z,14.95
2022-08-17T19:09:54.762Z,15.18
2022-08-17T19:12:27.622Z,13.90
2022-08-17T19:14:56.812Z,20.02
2022-08-17T19:17:27.225Z,11.55
2022-08-17T19:19:57.834Z,14.32
2022-08-17T19:22:28.647Z,17.40
2022-08-17T19:25:03.486Z,15.48
2022-08-17T19:27:41.750Z,14.18
2022-08-17T19:30:15.113Z,15.48
2022-08-17T19:32:45.994Z,20.48
2022-08-17T19:35:17.483Z,17.15
2022-08-17T19:37:52.376Z,17.33
2022-08-17T19:40:48.899Z,17.63
2022-08-17T19:43:22.427Z,20.77
2022-08-17T19:45:56.189Z,15.85
2022-08-17T19:48:39.168Z,17.08
2022-08-17T19:51:09.399Z,18.52
2022-08-17T19:54:03.690Z,17.15
2022-08-17T19:56:33.120Z,17.70
2022-08-17T19:59:05.094Z,17.58
2022-08-17T20:01:35.912Z,21.65
2022-08-17T20:04:08.468Z,19.17
2022-08-17T20:06:38.539Z,18.13
2022-08-17T20:09:15.255Z,20.05
2022-08-17T20:11:46.717Z,23.83
2022-08-17T20:14:19.473Z,20.35
2022-08-17T20:16:48.685Z,16.77
2022-08-17T20:19:23.376Z,19.70
2022-08-17T20:21:54.558Z,19.05
2022-08-17T20:24:27.393Z,20.40
2022-08-17T20:26:58.058Z,20.05
2022-08-17T20:29:59.892Z,19.98
2022-08-17T20:32:29.249Z,21.40
2022-08-17T20:35:04.396Z,19.38
2022-08-17T20:37:34.182Z,18.50
2022-08-17T20:40:20.687Z,18.58
2022-08-17T20:42:48.873Z,22.30
2022-08-17T20:45:35.576Z,21.13
2022-08-17T20:51:12.369Z,20.85
2022-08-17T20:53:59.829Z,21.02
2022-08-17T20:56:51.993Z,23.52
2022-08-17T20:59:38.766Z,21.38
2022-08-17T21:02:18.621Z,20.63
2022-08-17T21:05:00.302Z,19.90
2022-08-17T21:07:41.067Z,20.48
2022-08-17T21:10:14.415Z,20.13
2022-08-17T21:12:43.953Z,20.75
2022-08-17T21:15:21.492Z,20.92
2022-08-17T21:17:54.045Z,21.25
2022-08-17T21:20:32.474Z,23.98
2022-08-17T21:23:18.472Z,19.27
2022-08-17T21:26:04.231Z,23.55
2022-08-17T21:28:35.038Z,23.35
2022-08-17T21:31:09.171Z,22.48
2022-08-17T21:33:38.322Z,21.70
2022-08-17T21:36:25.625Z,22.05
2022-08-17T21:39:00.300Z,26.30
2022-08-17T21:41:31.053Z,22.30
2022-08-17T21:44:05.154Z,23.30
2022-08-17T21:46:37.254Z,23.98
2022-08-17T21:49:13.321Z,21.33
2022-08-17T21:51:45.185Z,18.25
2022-08-17T21:54:23.821Z,23.77
2022-08-17T21:56:52.291Z,22.10
2022-08-17T21:59:26.413Z,21.88
2022-08-17T22:01:58.165Z,22.75
2022-08-17T22:04:28.253Z,23.13
2022-08-17T22:06:57.533Z,19.65
2022-08-17T22:09:29.017Z,26.02
2022-08-17T22:12:03.424Z,23.48
2022-08-17T22:14:51.491Z,22.73
2022-08-17T22:17:23.981Z,26.02
2022-08-17T22:19:54.789Z,24.98
2022-08-17T22:22:28.282Z,29.08
2022-08-17T22:24:58.153Z,25.17
2022-08-17T22:27:40.994Z,25.42
2022-08-17T22:30:17.248Z,26.20
2022-08-17T22:32:46.502Z,23.98
2022-08-17T22:35:26.536Z,31.20
2022-08-17T22:37:56.121Z,29.10
2022-08-17T22:40:30.803Z,27.88
2022-08-17T22:42:59.192Z,30.20
2022-08-17T22:45:29.868Z,27.27
2022-08-17T22:48:00.465Z,30.48
2022-08-17T22:50:31.449Z,25.25
2022-08-17T22:53:18.335Z,26.88
2022-08-17T22:56:12.394Z,29.50
2022-08-17T22:59:00.974Z,25.95
2022-08-17T23:01:29.900Z,28.77
2022-08-17T23:04:01.981Z,29.83
2022-08-17T23:06:33.756Z,27.35
2022-08-17T23:09:04.042Z,28.92
2022-08-17T23:11:36.955Z,34.15
2022-08-17T23:14:18.466Z,29.85
2022-08-17T23:16:46.490Z,30.38
2022-08-17T23:19:16.965Z,27.20
2022-08-17T23:21:46.385Z,32.80
2022-08-17T23:24:17.292Z,33.88
2022-08-17T23:26:50.929Z,35.03
2022-08-17T23:29:21.358Z,33.90
2022-08-17T23:31:49.660Z,32.30
2022-08-17T23:34:18.655Z,33.17
2022-08-17T23:36:50.045Z,32.95
2022-08-17T23:39:24.651Z,35.35
2022-08-17T23:41:58.521Z,34.97
2022-08-17T23:44:27.055Z,33.05
2022-08-17T23:46:55.505Z,33.90
2022-08-17T23:49:25.482Z,32.83
2022-08-17T23:51:55.217Z,32.17
2022-08-17T23:54:24.608Z,36.50
2022-08-17T23:56:54.915Z,36.72
2022-08-17T23:59:24.872Z,36.13
